Portada
METAR-TAF:

METAR-TAF

Aeroports :

Pucallpa, Perú

latitud: 08-25S, longitud: 074-36W, altitud: 148 m

Observació

L'informe es va fer fa 44 minuts, a les 19:00 UTC
Vent 7 kt del Sud-Est
Temperatura 24°C
Humitat 74%
Pressió 1017 hPa
Visibilitat 10 km o més
Cel ennuvolat a una alçada de 1700 ft
Cel ennuvolat a una alçada de 7000 ft

METAR: SPCL 281900Z 13007KT 9999 BKN017 BKN070 24/19 Q1017 RMK PP000

Hora: 14:44 (19:44 UTC)

Pronòstic

L'informe es va fer fa 2 hores i 44 minuts, a les 17:00 UTC
Pronòstic vàlid del 28 a les 18 UTC al 29 a les 18 UTC
Vent 5 kt del Est/Sud-Est
Visibilitat 10 km o més
Cel ennuvolat a una alçada de 2000 ft
Cel ennuvolat a una alçada de 7000 ft
Temporalment
l' 29 a les 08 UTC al 29 a les 12 UTC
Visibilitat: 4000 m
Cel ennuvolat a una alçada de 500 ft
boirina,

TAF: SPCL 281700Z 2818/2918 12005KT 9999 BKN020 BKN070 TX27/2820Z TN20/2911Z TEMPO 2908/2912 4000 BR BKN005

Observacions i pronòstics meteorològics de més de 4000 aeroports (METAR i TAF).

Les estacions disponibles són els punts grocs i vermells al mapa.

Posi el ratolí al punt desitjat per veure el nom de l'estació.

Feu clic per veure les observacions i els pronòstics meteorològics.

Per canviar el mapa: feu clic els botons verds amb una creu de color negre per apropar; al botó verd amb un guió per allunyar la imatge; o en les fletxes verdes per a mapes adjacents.


METAR-TAF: